Terminal Aerodrome Forecast
Issued by NWS Melbourne, FL

Home | Current Version | Previous Version | Text Only | Print | Product List | Glossary On
Versions: 1 2 3 4 5 6 7 8 9 10 11 12
146
FTUS42 KMLB 302339
TAFMLB
TAF
KMLB 302339Z 3100/3124 14008KT P6SM FEW060 BKN120
     FM310400 21004KT P6SM FEW030 BKN120
     FM311400 27007KT P6SM SCT035
     FM312000 08007KT P6SM VCTS SCT035CB BKN250=

USA.gov is the U.S. government's official web portal to all federal, state and local government web resources and services.